Time;durP1;ratioP1;P1;durP2;ratioP2;P2;SDS_P1;SDS_P2;PMS_P1;PMS_P2;Temp;Humidity;BMP_temperature;BMP_pressure;BME280_temperature;BME280_humidity;BME280_pressure;Samples;Min_cycle;Max_cycle;Signal;HPM_P1;HPM_P2
2023/06/24 00:02:13;;;;;;;;;;;;;;;;;;2199440;59;2089;-23
2023/06/24 00:04:43;;;;;;;;;;;;;;;;;;2202671;67;1782;-23
2023/06/24 00:07:16;;;;;;;;;;;;;;;;;;2202142;67;1133;-23
2023/06/24 00:09:46;;;;;;;;;;;;;;;;;;2202454;67;1777;-23
2023/06/24 00:12:18;;;;;;;;;;;;;;;;;;2198223;59;1639;-23
2023/06/24 00:14:49;;;;;;;;;;;;;;;;;;2203203;67;1179;-23
2023/06/24 00:17:20;;;;;;;;;;;;;;;;;;2200756;59;1667;-23
2023/06/24 00:19:50;;;;;;;;;;;;;;;;;;2203182;59;1929;-23
2023/06/24 00:22:22;;;;;;;;;;;;;;;;;;2202444;67;1173;-23
2023/06/24 00:24:52;;;;;;;;;;;;;;;;;;2202222;67;2187;-23
2023/06/24 00:27:22;;;;;;;;;;;;;;;;;;2202112;59;1339;-23
2023/06/24 00:29:52;;;;;;;;;;;;;;;;;;2203620;59;1394;-23
2023/06/24 00:32:22;;;;;;;;;;;;;;;;;;2203346;67;1399;-23
2023/06/24 00:34:53;;;;;;;;;;;;;;;;;;2202969;67;1288;-23
2023/06/24 00:37:23;;;;;;;;;;;;;;;;;;2203589;67;1267;-23
2023/06/24 00:39:56;;;;;;;;;;;;;;;;;;2203751;67;1999;-23
2023/06/24 00:42:29;;;;;;;;;;;;;;;;;;2203011;67;1285;-23
2023/06/24 00:45:00;;;;;;;;;;;;;;;;;;2202900;67;1326;-23
2023/06/24 00:47:31;;;;;;;;;;;;;;;;;;2199388;67;1625;-22
2023/06/24 00:50:01;;;;;;;;;;;;;;;;;;2203146;67;1185;-23
2023/06/24 00:52:32;;;;;;;;;;;;;;;;;;2200136;67;1455;-23
2023/06/24 00:55:03;;;;;;;;;;;;;;;;;;2200046;67;1385;-23
2023/06/24 00:57:33;;;;;;;;;;;;;;;;;;2203429;59;1726;-23
2023/06/24 01:00:09;;;;;;;;;;;;;;;;;;2203371;59;1933;-23
2023/06/24 01:02:42;;;;;;;;;;;;;;;;;;2202763;59;1296;-23
2023/06/24 01:05:15;;;;;;;;;;;;;;;;;;2202806;67;1469;-23
2023/06/24 01:07:50;;;;;;;;;;;;;;;;;;2203279;67;1415;-23
2023/06/24 01:10:22;;;;;;;;;;;;;;;;;;2203071;67;1623;-23
2023/06/24 01:12:52;;;;;;;;;;;;;;;;;;2203329;67;1252;-23
2023/06/24 01:15:22;;;;;;;;;;;;;;;;;;2203209;59;1280;-23
2023/06/24 01:18:02;;;;;;;;;;;;;;;;;;2203275;67;1096;-23
2023/06/24 01:20:53;;;;;;;;;;;;;;;;;;2203117;59;1937;-23
2023/06/24 01:23:23;;;;;;;;;;;;;;;;;;2202819;67;1910;-23
2023/06/24 01:25:59;;;;;;;;;;;;;;;;;;2203185;59;1305;-23
2023/06/24 01:28:29;;;;;;;;;;;;;;;;;;2202995;67;1311;-23
2023/06/24 01:31:18;;;;;;;;;;;;;;;;;;2199648;59;1485;-22
2023/06/24 01:33:52;;;;;;;;;;;;;;;;;;2202954;67;1227;-23
2023/06/24 01:36:25;;;;;;;;;;;;;;;;;;2203457;67;1284;-23
2023/06/24 01:39:03;;;;;;;;;;;;;;;;;;2203225;67;1601;-23
2023/06/24 01:41:39;;;;;;;;;;;;;;;;;;2200939;67;1999;-23
2023/06/24 01:44:12;;;;;;;;;;;;;;;;;;2200606;67;1680;-23
2023/06/24 01:46:46;;;;;;;;;;;;;;;;;;2202879;67;1435;-23
2023/06/24 01:49:19;;;;;;;;;;;;;;;;;;2202765;59;1318;-23
2023/06/24 01:51:50;;;;;;;;;;;;;;;;;;2203487;59;1322;-23
2023/06/24 01:54:22;;;;;;;;;;;;;;;;;;2200274;67;1363;-23
2023/06/24 01:56:54;;;;;;;;;;;;;;;;;;2200290;67;1102;-23
2023/06/24 01:59:27;;;;;;;;;;;;;;;;;;2204083;59;1882;-23
2023/06/24 02:02:00;;;;;;;;;;;;;;;;;;2204605;59;1939;-23
2023/06/24 02:04:31;;;;;;;;;;;;;;;;;;2204125;67;2091;-23
2023/06/24 02:07:02;;;;;;;;;;;;;;;;;;2204084;67;1645;-23
2023/06/24 02:09:33;;;;;;;;;;;;;;;;;;2202836;67;1268;-23
2023/06/24 02:12:04;;;;;;;;;;;;;;;;;;2203078;67;1108;-23
2023/06/24 02:14:36;;;;;;;;;;;;;;;;;;2203285;67;1455;-22
2023/06/24 02:17:09;;;;;;;;;;;;;;;;;;2202787;59;1255;-23
2023/06/24 02:19:41;;;;;;;;;;;;;;;;;;2203623;67;1174;-23
2023/06/24 02:22:12;;;;;;;;;;;;;;;;;;2203619;67;1992;-23
2023/06/24 02:24:42;;;;;;;;;;;;;;;;;;2203048;67;1291;-23
2023/06/24 02:27:13;;;;;;;;;;;;;;;;;;2202653;59;1699;-23
2023/06/24 02:29:43;;;;;;;;;;;;;;;;;;2203610;59;1374;-23
2023/06/24 02:32:14;;;;;;;;;;;;;;;;;;2203625;67;1708;-23
2023/06/24 02:34:44;;;;;;;;;;;;;;;;;;2201274;59;6651;-23
2023/06/24 02:37:14;;;;;;;;;;;;;;;;;;2200836;59;1754;-23
2023/06/24 02:39:45;;;;;;;;;;;;;;;;;;2204060;59;1714;-23
2023/06/24 02:42:15;;;;;;;;;;;;;;;;;;2202589;67;2013;-23
2023/06/24 02:44:45;;;;;;;;;;;;;;;;;;2202436;67;1239;-23
2023/06/24 02:47:16;;;;;;;;;;;;;;;;;;2203407;67;1268;-23
2023/06/24 02:49:48;;;;;;;;;;;;;;;;;;2202223;67;1512;-23
2023/06/24 02:52:21;;;;;;;;;;;;;;;;;;2203413;59;1616;-23
2023/06/24 02:54:56;;;;;;;;;;;;;;;;;;2203073;67;1459;-23
2023/06/24 02:57:26;;;;;;;;;;;;;;;;;;2202969;59;2227;-23
2023/06/24 02:59:56;;;;;;;;;;;;;;;;;;2202817;59;1984;-23
2023/06/24 03:02:30;;;;;;;;;;;;;;;;;;2202177;67;1669;-23
2023/06/24 03:05:02;;;;;;;;;;;;;;;;;;2202413;59;1268;-23
2023/06/24 03:07:34;;;;;;;;;;;;;;;;;;2203208;59;1626;-23
2023/06/24 03:10:05;;;;;;;;;;;;;;;;;;2203732;67;1171;-23
2023/06/24 03:12:35;;;;;;;;;;;;;;;;;;2197321;67;2098;-23
2023/06/24 03:15:06;;;;;;;;;;;;;;;;;;2202955;59;1291;-23
2023/06/24 03:17:36;;;;;;;;;;;;;;;;;;2200254;59;1368;-23
2023/06/24 03:20:08;;;;;;;;;;;;;;;;;;2203640;59;1981;-23
2023/06/24 03:22:38;;;;;;;;;;;;;;;;;;2202681;67;1206;-23
2023/06/24 03:25:08;;;;;;;;;;;;;;;;;;2204195;67;1275;-22
2023/06/24 03:27:38;;;;;;;;;;;;;;;;;;2203437;59;1915;-23
2023/06/24 03:30:10;;;;;;;;;;;;;;;;;;2200435;59;1619;-23
2023/06/24 03:32:46;;;;;;;;;;;;;;;;;;2203042;59;1641;-23
2023/06/24 03:35:16;;;;;;;;;;;;;;;;;;2200054;67;2011;-23
2023/06/24 03:37:46;;;;;;;;;;;;;;;;;;2200476;67;1502;-23
2023/06/24 03:40:17;;;;;;;;;;;;;;;;;;2203258;67;1927;-23
2023/06/24 03:42:47;;;;;;;;;;;;;;;;;;2203653;67;1360;-23
2023/06/24 03:45:17;;;;;;;;;;;;;;;;;;2202957;67;1849;-23
2023/06/24 03:47:47;;;;;;;;;;;;;;;;;;2199383;67;1291;-23
2023/06/24 03:50:18;;;;;;;;;;;;;;;;;;2202804;67;1485;-23
2023/06/24 03:52:51;;;;;;;;;;;;;;;;;;2203916;59;1500;-23
2023/06/24 03:55:21;;;;;;;;;;;;;;;;;;2200248;67;1671;-23
2023/06/24 03:57:51;;;;;;;;;;;;;;;;;;2199856;59;1726;-23
2023/06/24 04:00:23;;;;;;;;;;;;;;;;;;2202419;59;1944;-23
2023/06/24 04:02:53;;;;;;;;;;;;;;;;;;2202709;67;1909;-23
2023/06/24 04:05:24;;;;;;;;;;;;;;;;;;2203298;59;1571;-23
2023/06/24 04:07:54;;;;;;;;;;;;;;;;;;2202900;59;1204;-23
2023/06/24 04:10:25;;;;;;;;;;;;;;;;;;2203439;67;1362;-23
2023/06/24 04:12:55;;;;;;;;;;;;;;;;;;2202480;67;1823;-23
2023/06/24 04:15:25;;;;;;;;;;;;;;;;;;2202982;67;1296;-23
2023/06/24 04:17:56;;;;;;;;;;;;;;;;;;2203292;59;1509;-23
2023/06/24 04:20:26;;;;;;;;;;;;;;;;;;2204879;59;1932;-23
2023/06/24 04:22:57;;;;;;;;;;;;;;;;;;2205026;67;1408;-23
2023/06/24 04:25:28;;;;;;;;;;;;;;;;;;2205482;67;1700;-23
2023/06/24 04:27:58;;;;;;;;;;;;;;;;;;2204042;59;1354;-23
2023/06/24 04:30:28;;;;;;;;;;;;;;;;;;2203635;59;1329;-23
2023/06/24 04:32:58;;;;;;;;;;;;;;;;;;2204139;67;1725;-23
2023/06/24 04:35:30;;;;;;;;;;;;;;;;;;2203217;67;1320;-23
2023/06/24 04:38:00;;;;;;;;;;;;;;;;;;2203033;67;1280;-23
2023/06/24 04:40:30;;;;;;;;;;;;;;;;;;2203370;67;2006;-23
2023/06/24 04:43:00;;;;;;;;;;;;;;;;;;2202838;67;1577;-23
2023/06/24 04:45:31;;;;;;;;;;;;;;;;;;2202432;67;1714;-23
2023/06/24 04:48:01;;;;;;;;;;;;;;;;;;2202261;67;1580;-23
2023/06/24 04:50:31;;;;;;;;;;;;;;;;;;2199166;59;1251;-22
2023/06/24 04:53:01;;;;;;;;;;;;;;;;;;2201152;59;1378;-30
2023/06/24 04:55:32;;;;;;;;;;;;;;;;;;2206187;67;1873;-23
2023/06/24 04:58:02;;;;;;;;;;;;;;;;;;2204832;59;1746;-23
2023/06/24 05:00:32;;;;;;;;;;;;;;;;;;2203965;59;2022;-23
2023/06/24 05:03:05;;;;;;;;;;;;;;;;;;2203866;67;2253;-23
2023/06/24 05:05:36;;;;;;;;;;;;;;;;;;2202626;59;1245;-23
2023/06/24 05:08:07;;;;;;;;;;;;;;;;;;2203268;67;1583;-23
2023/06/24 05:10:38;;;;;;;;;;;;;;;;;;2200585;67;1671;-23
2023/06/24 05:13:08;;;;;;;;;;;;;;;;;;2203593;67;1298;-23
2023/06/24 05:15:38;;;;;;;;;;;;;;;;;;2203123;67;1674;-23
2023/06/24 05:18:08;;;;;;;;;;;;;;;;;;2200549;59;1289;-23
2023/06/24 05:20:39;;;;;;;;;;;;;;;;;;2204008;59;2581;-23
2023/06/24 05:23:09;;;;;;;;;;;;;;;;;;2199760;59;1850;-23
2023/06/24 05:25:39;;;;;;;;;;;;;;;;;;2202386;67;1210;-23
2023/06/24 05:28:09;;;;;;;;;;;;;;;;;;2202397;59;1176;-23
2023/06/24 05:30:44;;;;;;;;;;;;;;;;;;2203174;59;1714;-23
2023/06/24 05:33:14;;;;;;;;;;;;;;;;;;2200357;67;1384;-23
2023/06/24 05:35:44;;;;;;;;;;;;;;;;;;2203367;67;1249;-23
2023/06/24 05:38:15;;;;;;;;;;;;;;;;;;2203677;67;1766;-23
2023/06/24 05:40:48;;;;;;;;;;;;;;;;;;2203457;67;2009;-23
2023/06/24 05:43:18;;;;;;;;;;;;;;;;;;2203274;67;1172;-23
2023/06/24 05:45:48;;;;;;;;;;;;;;;;;;2203229;59;1660;-23
2023/06/24 05:48:19;;;;;;;;;;;;;;;;;;2203206;67;1305;-23
2023/06/24 05:50:49;;;;;;;;;;;;;;;;;;2202272;59;1266;-23
2023/06/24 05:53:19;;;;;;;;;;;;;;;;;;2203598;67;1392;-23
2023/06/24 05:55:49;;;;;;;;;;;;;;;;;;2203580;67;1357;-23
2023/06/24 05:58:19;;;;;;;;;;;;;;;;;;2203777;59;2353;-23
2023/06/24 06:00:50;;;;;;;;;;;;;;;;;;2203042;59;1941;-23
2023/06/24 06:03:20;;;;;;;;;;;;;;;;;;2202396;59;1305;-23
2023/06/24 06:05:53;;;;;;;;;;;;;;;;;;2202605;59;1373;-23
2023/06/24 06:08:23;;;;;;;;;;;;;;;;;;2202474;59;1843;-23
2023/06/24 06:10:53;;;;;;;;;;;;;;;;;;2203479;67;1566;-23
2023/06/24 06:13:24;;;;;;;;;;;;;;;;;;2202539;67;1313;-23
2023/06/24 06:15:54;;;;;;;;;;;;;;;;;;2201874;59;1300;-23
2023/06/24 06:18:24;;;;;;;;;;;;;;;;;;2202867;59;1765;-23
2023/06/24 06:20:55;;;;;;;;;;;;;;;;;;2199589;67;1940;-23
2023/06/24 06:23:27;;;;;;;;;;;;;;;;;;2199576;67;1317;-23
2023/06/24 06:25:57;;;;;;;;;;;;;;;;;;2202632;59;1228;-23
2023/06/24 06:28:27;;;;;;;;;;;;;;;;;;2202508;67;1943;-23
2023/06/24 06:30:58;;;;;;;;;;;;;;;;;;2202148;59;1262;-23
2023/06/24 06:33:28;;;;;;;;;;;;;;;;;;2199308;59;1495;-23
2023/06/24 06:35:58;;;;;;;;;;;;;;;;;;2204801;67;1708;-23
2023/06/24 06:38:29;;;;;;;;;;;;;;;;;;2202366;67;1346;-23
2023/06/24 06:40:59;;;;;;;;;;;;;;;;;;2202378;59;1945;-23
2023/06/24 06:43:29;;;;;;;;;;;;;;;;;;2203666;67;1892;-23
2023/06/24 06:45:59;;;;;;;;;;;;;;;;;;2199656;59;2140;-23
2023/06/24 06:48:30;;;;;;;;;;;;;;;;;;2202220;59;2535;-23
2023/06/24 06:51:00;;;;;;;;;;;;;;;;;;2201589;59;1323;-23
2023/06/24 06:53:30;;;;;;;;;;;;;;;;;;2202833;67;1350;-23
2023/06/24 06:56:00;;;;;;;;;;;;;;;;;;2202288;67;1135;-23
2023/06/24 06:58:30;;;;;;;;;;;;;;;;;;2202439;59;2198;-23
2023/06/24 07:01:05;;;;;;;;;;;;;;;;;;2201165;59;2164;-23
2023/06/24 07:03:35;;;;;;;;;;;;;;;;;;2202312;60;1573;-23
2023/06/24 07:06:05;;;;;;;;;;;;;;;;;;2202310;59;2020;-23
2023/06/24 07:08:35;;;;;;;;;;;;;;;;;;2203399;59;1516;-23
2023/06/24 07:11:05;;;;;;;;;;;;;;;;;;2203181;67;1644;-23
2023/06/24 07:13:36;;;;;;;;;;;;;;;;;;2202926;67;1998;-23
2023/06/24 07:16:06;;;;;;;;;;;;;;;;;;2202577;59;1382;-23
2023/06/24 07:18:36;;;;;;;;;;;;;;;;;;2203450;59;1749;-23
2023/06/24 07:21:06;;;;;;;;;;;;;;;;;;2202892;67;1937;-23
2023/06/24 07:23:37;;;;;;;;;;;;;;;;;;2203354;67;1267;-23
2023/06/24 07:26:07;;;;;;;;;;;;;;;;;;2201855;59;2341;-23
2023/06/24 07:28:37;;;;;;;;;;;;;;;;;;2202223;67;1313;-23
2023/06/24 07:31:07;;;;;;;;;;;;;;;;;;2201722;59;1400;-23
2023/06/24 07:33:37;;;;;;;;;;;;;;;;;;2202342;59;1711;-23
2023/06/24 07:36:08;;;;;;;;;;;;;;;;;;2202627;67;1197;-23
2023/06/24 07:38:38;;;;;;;;;;;;;;;;;;2202586;67;1593;-23
2023/06/24 07:41:08;;;;;;;;;;;;;;;;;;2201706;67;1933;-23
2023/06/24 07:43:39;;;;;;;;;;;;;;;;;;2202646;67;1331;-23
2023/06/24 07:46:09;;;;;;;;;;;;;;;;;;2202427;67;1667;-23
2023/06/24 07:48:39;;;;;;;;;;;;;;;;;;2202441;67;1776;-23
2023/06/24 07:51:09;;;;;;;;;;;;;;;;;;2198740;59;1701;-24
2023/06/24 07:53:39;;;;;;;;;;;;;;;;;;2203040;67;1460;-24
2023/06/24 07:56:10;;;;;;;;;;;;;;;;;;2202491;67;1461;-24
2023/06/24 07:58:40;;;;;;;;;;;;;;;;;;2202992;59;1755;-24
2023/06/24 08:01:10;;;;;;;;;;;;;;;;;;2202038;59;2049;-24
2023/06/24 08:03:40;;;;;;;;;;;;;;;;;;2202109;67;1732;-24
2023/06/24 08:06:11;;;;;;;;;;;;;;;;;;2199402;67;1255;-24
2023/06/24 08:08:41;;;;;;;;;;;;;;;;;;2203406;67;1254;-24
2023/06/24 08:11:11;;;;;;;;;;;;;;;;;;2202816;67;1579;-24
2023/06/24 08:13:41;;;;;;;;;;;;;;;;;;2202742;67;1929;-24
2023/06/24 08:16:11;;;;;;;;;;;;;;;;;;2201940;59;2804;-24
2023/06/24 08:18:42;;;;;;;;;;;;;;;;;;2202771;59;1746;-24
2023/06/24 08:21:15;;;;;;;;;;;;;;;;;;2201280;67;2161;-22
2023/06/24 08:23:45;;;;;;;;;;;;;;;;;;2199948;59;2307;-22
2023/06/24 08:26:16;;;;;;;;;;;;;;;;;;2200930;59;1966;-23
2023/06/24 08:28:46;;;;;;;;;;;;;;;;;;2202537;67;1646;-23
2023/06/24 08:31:16;;;;;;;;;;;;;;;;;;2201965;59;1628;-22
2023/06/24 08:33:47;;;;;;;;;;;;;;;;;;2197903;59;2755;-23
2023/06/24 08:36:17;;;;;;;;;;;;;;;;;;2198313;59;2166;-22
2023/06/24 08:38:47;;;;;;;;;;;;;;;;;;2202646;67;2004;-22
2023/06/24 08:41:17;;;;;;;;;;;;;;;;;;2201906;59;1974;-22
2023/06/24 08:43:48;;;;;;;;;;;;;;;;;;2198685;59;2052;-23
2023/06/24 08:46:19;;;;;;;;;;;;;;;;;;2200992;67;2205;-23
2023/06/24 08:48:53;;;;;;;;;;;;;;;;;;2201708;59;2233;-23
2023/06/24 08:51:27;;;;;;;;;;;;;;;;;;2198174;59;1858;-23
2023/06/24 08:53:58;;;;;;;;;;;;;;;;;;2196319;67;2856;-23
2023/06/24 08:56:28;;;;;;;;;;;;;;;;;;2201102;67;1778;-23
2023/06/24 08:58:58;;;;;;;;;;;;;;;;;;2200890;59;2061;-22
2023/06/24 09:01:29;;;;;;;;;;;;;;;;;;2200428;59;2119;-23
2023/06/24 09:03:59;;;;;;;;;;;;;;;;;;2200332;59;2729;-23
2023/06/24 09:06:31;;;;;;;;;;;;;;;;;;2200969;59;1776;-23
2023/06/24 09:09:01;;;;;;;;;;;;;;;;;;2200872;59;1790;-23
2023/06/24 09:11:32;;;;;;;;;;;;;;;;;;2203395;67;1761;-23
2023/06/24 09:14:02;;;;;;;;;;;;;;;;;;2202398;62;1734;-23
2023/06/24 09:16:32;;;;;;;;;;;;;;;;;;2199182;67;2397;-23
2023/06/24 09:19:03;;;;;;;;;;;;;;;;;;2199439;59;2660;-23
2023/06/24 09:21:34;;;;;;;;;;;;;;;;;;2200719;67;1930;-23
2023/06/24 09:24:05;;;;;;;;;;;;;;;;;;2207183;59;3831;-19
2023/06/24 09:26:35;;;;;;;;;;;;;;;;;;2204467;59;2206;-19
2023/06/24 09:29:05;;;;;;;;;;;;;;;;;;2208887;67;1706;-19
2023/06/24 09:31:35;;;;;;;;;;;;;;;;;;2208307;59;1916;-20
2023/06/24 09:34:12;;;;;;;;;;;;;;;;;;2202891;59;2706;-19
2023/06/24 09:36:43;;;;;;;;;;;;;;;;;;2206860;61;2314;-19
2023/06/24 09:39:13;;;;;;;;;;;;;;;;;;2202434;59;1559;-19
2023/06/24 09:41:48;;;;;;;;;;;;;;;;;;2206756;67;2622;-19
2023/06/24 09:44:19;;;;;;;;;;;;;;;;;;2202043;59;1724;-19
2023/06/24 09:46:49;;;;;;;;;;;;;;;;;;2206135;59;1810;-19
2023/06/24 09:49:19;;;;;;;;;;;;;;;;;;2205835;67;1751;-19
2023/06/24 09:51:54;;;;;;;;;;;;;;;;;;2206381;59;2512;-19
2023/06/24 09:54:26;;;;;;;;;;;;;;;;;;2205705;67;1763;-19
2023/06/24 09:56:59;;;;;;;;;;;;;;;;;;2206148;67;1857;-19
2023/06/24 09:59:30;;;;;;;;;;;;;;;;;;2205760;59;1795;-19
2023/06/24 10:02:05;;;;;;;;;;;;;;;;;;2205457;59;2000;-19
2023/06/24 10:04:35;;;;;;;;;;;;;;;;;;2205993;67;1705;-21
2023/06/24 10:07:05;;;;;;;;;;;;;;;;;;2206130;59;1493;-22
2023/06/24 10:09:36;;;;;;;;;;;;;;;;;;2205848;59;1768;-21
2023/06/24 10:12:07;;;;;;;;;;;;;;;;;;2206278;67;1908;-21
2023/06/24 10:14:37;;;;;;;;;;;;;;;;;;2206207;67;1434;-21
2023/06/24 10:17:07;;;;;;;;;;;;;;;;;;2206145;67;1316;-19
2023/06/24 10:19:39;;;;;;;;;;;;;;;;;;2206451;59;1785;-19
2023/06/24 10:22:13;;;;;;;;;;;;;;;;;;2202279;60;1988;-20
2023/06/24 10:24:46;;;;;;;;;;;;;;;;;;2206590;59;1688;-19
2023/06/24 10:27:17;;;;;;;;;;;;;;;;;;2202107;59;1667;-19
2023/06/24 10:29:51;;;;;;;;;;;;;;;;;;2206353;67;1266;-19
2023/06/24 10:32:22;;;;;;;;;;;;;;;;;;2204912;59;1755;-19
2023/06/24 10:34:56;;;;;;;;;;;;;;;;;;2203356;59;2683;-19
2023/06/24 10:37:31;;;;;;;;;;;;;;;;;;2202686;59;2568;-19
2023/06/24 10:40:02;;;;;;;;;;;;;;;;;;2201556;67;2539;-19
2023/06/24 10:42:35;;;;;;;;;;;;;;;;;;2205628;67;2626;-19
2023/06/24 10:45:08;;;;;;;;;;;;;;;;;;2205192;59;2538;-19
2023/06/24 10:47:40;;;;;;;;;;;;;;;;;;2205258;59;2332;-19
2023/06/24 10:50:11;;;;;;;;;;;;;;;;;;2204913;59;1900;-19
2023/06/24 10:52:46;;;;;;;;;;;;;;;;;;2206129;59;1504;-19
2023/06/24 10:55:17;;;;;;;;;;;;;;;;;;2205665;67;2042;-19
2023/06/24 10:57:47;;;;;;;;;;;;;;;;;;2207328;59;2335;-19
2023/06/24 11:00:20;;;;;;;;;;;;;;;;;;2206567;59;2425;-19
2023/06/24 11:02:53;;;;;;;;;;;;;;;;;;2205787;67;1779;-19
2023/06/24 11:05:23;;;;;;;;;;;;;;;;;;2204673;59;1739;-19
2023/06/24 11:07:56;;;;;;;;;;;;;;;;;;2205127;67;2484;-22
2023/06/24 11:10:26;;;;;;;;;;;;;;;;;;2204778;67;1940;-21
2023/06/24 11:12:58;;;;;;;;;;;;;;;;;;2202001;67;1795;-21
2023/06/24 11:15:28;;;;;;;;;;;;;;;;;;2201130;67;2030;-21
2023/06/24 11:18:01;;;;;;;;;;;;;;;;;;2202609;59;1912;-21
2023/06/24 11:20:31;;;;;;;;;;;;;;;;;;2205935;59;1922;-21
2023/06/24 11:23:02;;;;;;;;;;;;;;;;;;2204502;67;1655;-22
2023/06/24 11:25:32;;;;;;;;;;;;;;;;;;2201220;59;1718;-21
2023/06/24 11:28:02;;;;;;;;;;;;;;;;;;2205162;59;2371;-21
2023/06/24 11:30:35;;;;;;;;;;;;;;;;;;2207369;59;1782;-21
2023/06/24 11:33:05;;;;;;;;;;;;;;;;;;2202491;59;2182;-21
2023/06/24 11:35:43;;;;;;;;;;;;;;;;;;2203206;59;2203;-21
2023/06/24 11:38:13;;;;;;;;;;;;;;;;;;2206118;59;2771;-21
2023/06/24 11:40:47;;;;;;;;;;;;;;;;;;2206810;59;1951;-21
2023/06/24 11:43:18;;;;;;;;;;;;;;;;;;2203037;67;1781;-21
2023/06/24 11:45:48;;;;;;;;;;;;;;;;;;2206802;59;1994;-21
2023/06/24 11:48:19;;;;;;;;;;;;;;;;;;2205913;67;1661;-21
2023/06/24 11:50:53;;;;;;;;;;;;;;;;;;2207265;59;1279;-20
2023/06/24 11:53:31;;;;;;;;;;;;;;;;;;2206917;59;1581;-20
2023/06/24 11:56:01;;;;;;;;;;;;;;;;;;2202614;67;1214;-19
2023/06/24 11:58:35;;;;;;;;;;;;;;;;;;2206565;59;2042;-19
2023/06/24 12:01:09;;;;;;;;;;;;;;;;;;2205311;59;2009;-19
2023/06/24 12:03:40;;;;;;;;;;;;;;;;;;2205547;59;1886;-19
2023/06/24 12:06:11;;;;;;;;;;;;;;;;;;2205924;59;1392;-19
2023/06/24 12:08:41;;;;;;;;;;;;;;;;;;2202119;67;1345;-19
2023/06/24 12:11:14;;;;;;;;;;;;;;;;;;2205697;67;1240;-19
2023/06/24 12:13:44;;;;;;;;;;;;;;;;;;2206860;67;1631;-19
2023/06/24 12:16:14;;;;;;;;;;;;;;;;;;2205879;59;1478;-19
2023/06/24 12:18:45;;;;;;;;;;;;;;;;;;2206117;59;1656;-19
2023/06/24 12:21:15;;;;;;;;;;;;;;;;;;2205852;67;1932;-19
2023/06/24 12:23:45;;;;;;;;;;;;;;;;;;2206560;59;1665;-19
2023/06/24 12:26:15;;;;;;;;;;;;;;;;;;2206219;59;1731;-19
2023/06/24 12:28:46;;;;;;;;;;;;;;;;;;2206398;67;1332;-19
2023/06/24 12:31:16;;;;;;;;;;;;;;;;;;2202427;59;2156;-19
2023/06/24 12:33:46;;;;;;;;;;;;;;;;;;2206192;67;1381;-19
2023/06/24 12:36:16;;;;;;;;;;;;;;;;;;2205695;59;2453;-19
2023/06/24 12:38:47;;;;;;;;;;;;;;;;;;2205338;59;2530;-19
2023/06/24 12:41:20;;;;;;;;;;;;;;;;;;2205656;59;1944;-19
2023/06/24 12:43:50;;;;;;;;;;;;;;;;;;2203397;67;1964;-19
2023/06/24 12:46:20;;;;;;;;;;;;;;;;;;2203813;59;2539;-19
2023/06/24 12:48:50;;;;;;;;;;;;;;;;;;2209209;67;1908;-19
2023/06/24 12:51:21;;;;;;;;;;;;;;;;;;2202294;59;2616;-19
2023/06/24 12:53:51;;;;;;;;;;;;;;;;;;2203190;67;2169;-21
2023/06/24 12:56:21;;;;;;;;;;;;;;;;;;2202619;67;1744;-21
2023/06/24 12:58:51;;;;;;;;;;;;;;;;;;2206907;59;1986;-21
2023/06/24 13:01:24;;;;;;;;;;;;;;;;;;2206285;59;1925;-21
2023/06/24 13:03:55;;;;;;;;;;;;;;;;;;2207009;59;2185;-21
2023/06/24 13:06:25;;;;;;;;;;;;;;;;;;2206755;59;2045;-21
2023/06/24 13:08:55;;;;;;;;;;;;;;;;;;2206959;59;1886;-21
2023/06/24 13:11:25;;;;;;;;;;;;;;;;;;2203253;67;1571;-21
2023/06/24 13:13:56;;;;;;;;;;;;;;;;;;2206192;67;1318;-21
2023/06/24 13:16:26;;;;;;;;;;;;;;;;;;2206582;67;1322;-21
2023/06/24 13:18:56;;;;;;;;;;;;;;;;;;2207041;59;1864;-21
2023/06/24 13:21:26;;;;;;;;;;;;;;;;;;2207190;67;1932;-21
2023/06/24 13:23:56;;;;;;;;;;;;;;;;;;2208485;59;1449;-21
2023/06/24 13:26:27;;;;;;;;;;;;;;;;;;2207006;59;1241;-21
2023/06/24 13:28:57;;;;;;;;;;;;;;;;;;2206926;67;1283;-21
2023/06/24 13:31:27;;;;;;;;;;;;;;;;;;2206091;59;1207;-21
2023/06/24 13:33:58;;;;;;;;;;;;;;;;;;2205203;59;2085;-21
2023/06/24 13:36:37;;;;;;;;;;;;;;;;;;2205294;59;1792;-21
2023/06/24 13:39:08;;;;;;;;;;;;;;;;;;2205837;59;2719;-22
2023/06/24 13:41:39;;;;;;;;;;;;;;;;;;2207276;59;2105;-21
2023/06/24 13:44:09;;;;;;;;;;;;;;;;;;2206764;59;2959;-21
2023/06/24 13:46:42;;;;;;;;;;;;;;;;;;2203781;59;1471;-21
2023/06/24 13:49:13;;;;;;;;;;;;;;;;;;2205073;59;2612;-21
2023/06/24 13:51:43;;;;;;;;;;;;;;;;;;2207253;59;1539;-21
2023/06/24 13:54:13;;;;;;;;;;;;;;;;;;2206284;59;2031;-21
2023/06/24 13:56:44;;;;;;;;;;;;;;;;;;2205015;59;2115;-21
2023/06/24 13:59:14;;;;;;;;;;;;;;;;;;2205611;59;2539;-21
2023/06/24 14:01:44;;;;;;;;;;;;;;;;;;2206426;59;2006;-21
2023/06/24 14:04:14;;;;;;;;;;;;;;;;;;2205778;59;2152;-21
2023/06/24 14:06:48;;;;;;;;;;;;;;;;;;2205558;59;2457;-21
2023/06/24 14:09:18;;;;;;;;;;;;;;;;;;2206454;67;1779;-21
2023/06/24 14:11:48;;;;;;;;;;;;;;;;;;2206855;59;2107;-21
2023/06/24 14:14:18;;;;;;;;;;;;;;;;;;2206587;59;2002;-21
2023/06/24 14:16:48;;;;;;;;;;;;;;;;;;2205013;59;2480;-21
2023/06/24 14:19:19;;;;;;;;;;;;;;;;;;2204858;59;2179;-21
2023/06/24 14:21:49;;;;;;;;;;;;;;;;;;2208623;67;2016;-21
2023/06/24 14:24:19;;;;;;;;;;;;;;;;;;2204793;59;2557;-21
2023/06/24 14:26:49;;;;;;;;;;;;;;;;;;2206723;67;1535;-21
2023/06/24 14:29:20;;;;;;;;;;;;;;;;;;2203365;59;1676;-21
2023/06/24 14:31:51;;;;;;;;;;;;;;;;;;2207818;59;1314;-21
2023/06/24 14:34:21;;;;;;;;;;;;;;;;;;2207248;59;1851;-21
2023/06/24 14:36:51;;;;;;;;;;;;;;;;;;2209530;59;1528;-21
2023/06/24 14:39:22;;;;;;;;;;;;;;;;;;2205809;59;2816;-21
2023/06/24 14:41:52;;;;;;;;;;;;;;;;;;2209440;59;2485;-21
2023/06/24 14:44:22;;;;;;;;;;;;;;;;;;2209773;67;1259;-21
2023/06/24 14:46:52;;;;;;;;;;;;;;;;;;2212097;59;1140;-21
2023/06/24 14:49:22;;;;;;;;;;;;;;;;;;2210834;59;1537;-21
2023/06/24 14:51:53;;;;;;;;;;;;;;;;;;2208541;59;1357;-21
2023/06/24 14:54:23;;;;;;;;;;;;;;;;;;2207379;67;1235;-21
2023/06/24 14:56:53;;;;;;;;;;;;;;;;;;2203214;67;1178;-21
2023/06/24 14:59:23;;;;;;;;;;;;;;;;;;2207113;59;1918;-21
2023/06/24 15:01:54;;;;;;;;;;;;;;;;;;2210709;67;1967;-22
2023/06/24 15:04:24;;;;;;;;;;;;;;;;;;2212345;67;1539;-21
2023/06/24 15:06:54;;;;;;;;;;;;;;;;;;2211609;67;1127;-21
2023/06/24 15:09:27;;;;;;;;;;;;;;;;;;2210943;59;1970;-21
2023/06/24 15:11:57;;;;;;;;;;;;;;;;;;2210093;67;1144;-21
2023/06/24 15:14:28;;;;;;;;;;;;;;;;;;2207054;59;1475;-21
2023/06/24 15:16:58;;;;;;;;;;;;;;;;;;2206669;67;2087;-21
2023/06/24 15:19:28;;;;;;;;;;;;;;;;;;2204180;59;1825;-21
2023/06/24 15:21:59;;;;;;;;;;;;;;;;;;2209033;67;1989;-21
2023/06/24 15:24:29;;;;;;;;;;;;;;;;;;2209378;53;1969;-71
2023/06/24 15:26:59;;;;;;;;;;;;;;;;;;2206115;59;1581;-72
2023/06/24 15:29:29;;;;;;;;;;;;;;;;;;2207049;59;2897;-71
2023/06/24 15:31:59;;;;;;;;;;;;;;;;;;2206959;59;2120;-72
2023/06/24 15:34:30;;;;;;;;;;;;;;;;;;2204823;59;2438;-70
2023/06/24 15:37:00;;;;;;;;;;;;;;;;;;2205421;59;2315;-72
2023/06/24 15:39:30;;;;;;;;;;;;;;;;;;2205060;67;2452;-71
2023/06/24 15:42:01;;;;;;;;;;;;;;;;;;2204322;59;2751;-71
2023/06/24 15:44:31;;;;;;;;;;;;;;;;;;2205141;59;2024;-72
2023/06/24 15:47:01;;;;;;;;;;;;;;;;;;2205327;59;2721;-71
2023/06/24 15:49:31;;;;;;;;;;;;;;;;;;2205038;67;2136;-72
2023/06/24 15:52:02;;;;;;;;;;;;;;;;;;2206387;59;2092;-72
2023/06/24 15:54:32;;;;;;;;;;;;;;;;;;2200758;59;2336;-72
2023/06/24 15:57:02;;;;;;;;;;;;;;;;;;2205163;59;2093;-72
2023/06/24 15:59:32;;;;;;;;;;;;;;;;;;2205146;59;2522;-72
2023/06/24 16:02:03;;;;;;;;;;;;;;;;;;2204725;59;2050;-71
2023/06/24 16:04:33;;;;;;;;;;;;;;;;;;2205113;59;1870;-72
2023/06/24 16:07:03;;;;;;;;;;;;;;;;;;2205548;59;1782;-73
2023/06/24 16:09:34;;;;;;;;;;;;;;;;;;2205575;67;2411;-72
2023/06/24 16:12:04;;;;;;;;;;;;;;;;;;2205820;59;1898;-72
2023/06/24 16:14:34;;;;;;;;;;;;;;;;;;2205848;63;1953;-72
2023/06/24 16:17:04;;;;;;;;;;;;;;;;;;2204855;59;1823;-71
2023/06/24 16:19:34;;;;;;;;;;;;;;;;;;2205919;59;1810;-72
2023/06/24 16:22:05;;;;;;;;;;;;;;;;;;2206794;59;2000;-72
2023/06/24 16:24:35;;;;;;;;;;;;;;;;;;2205857;59;1906;-72
2023/06/24 16:27:05;;;;;;;;;;;;;;;;;;2202492;59;1848;-71
2023/06/24 16:29:35;;;;;;;;;;;;;;;;;;2205151;67;2051;-72
2023/06/24 16:32:06;;;;;;;;;;;;;;;;;;2206191;59;1573;-72
2023/06/24 16:34:36;;;;;;;;;;;;;;;;;;2205967;67;1867;-72
2023/06/24 16:37:06;;;;;;;;;;;;;;;;;;2206437;59;1777;-72
2023/06/24 16:39:36;;;;;;;;;;;;;;;;;;2205236;59;1943;-71
2023/06/24 16:42:07;;;;;;;;;;;;;;;;;;2205709;59;2786;-71
2023/06/24 16:44:37;;;;;;;;;;;;;;;;;;2205547;59;2364;-72
2023/06/24 16:47:08;;;;;;;;;;;;;;;;;;2206472;59;2133;-72
2023/06/24 16:49:38;;;;;;;;;;;;;;;;;;2202253;59;2262;-72
2023/06/24 16:52:08;;;;;;;;;;;;;;;;;;2205961;67;1893;-71
2023/06/24 16:54:38;;;;;;;;;;;;;;;;;;2202620;59;2157;-72
2023/06/24 16:57:09;;;;;;;;;;;;;;;;;;2206379;67;1760;-72
2023/06/24 16:59:39;;;;;;;;;;;;;;;;;;2202718;59;2533;-72
2023/06/24 17:02:09;;;;;;;;;;;;;;;;;;2205551;59;1987;-70
2023/06/24 17:04:39;;;;;;;;;;;;;;;;;;2206416;67;2061;-72
2023/06/24 17:07:09;;;;;;;;;;;;;;;;;;2206251;59;1484;-72
2023/06/24 17:09:40;;;;;;;;;;;;;;;;;;2206739;59;1862;-71
2023/06/24 17:12:10;;;;;;;;;;;;;;;;;;2205761;59;2110;-72
2023/06/24 17:14:40;;;;;;;;;;;;;;;;;;2205546;59;2005;-71
2023/06/24 17:17:10;;;;;;;;;;;;;;;;;;2205211;59;2277;-71
2023/06/24 17:19:41;;;;;;;;;;;;;;;;;;2203117;59;2609;-71
2023/06/24 17:22:11;;;;;;;;;;;;;;;;;;2199960;59;2336;-72
2023/06/24 17:24:41;;;;;;;;;;;;;;;;;;2203687;59;2552;-71
2023/06/24 17:27:11;;;;;;;;;;;;;;;;;;2205929;59;1814;-71
2023/06/24 17:29:42;;;;;;;;;;;;;;;;;;2204731;59;1972;-72